• Join FlightAware (Why Join?)
  • Login
  • US Flag 
07:05PM EDT


 

Airport Tracker/Info


-or-


 

Live Flight TrackerFlight Track Log ✈ N6182A ✈ 03-Sep-2014 ✈ KMCN - KGSP

Flight Track Log - Related Links

Times and Time Zones

All times are in EDT time to prevent confusion due to time zone crossing. See the N6182A flight status page for this flight to view local times or setup timezone preferences in your user account.

Time Position Orientation Groundspeed Altitude Reporting Facility
EDT Latitude Longitude Course Direction KTS MPH feet Rate Location/Type
09:06AM 32.7167 -83.6667 26° Northeast 160 184 1,900  Level Atlanta TRACON
09:08AM 32.7792 -83.6311 26° Northeast 167 192 5,200 2,220 Climbing Atlanta Center
09:09AM 32.8250 -83.5989 31° Northeast 181 208 7,600 2,340 Climbing Atlanta Center
09:10AM 32.8686 -83.5714 28° Northeast 181 208 9,900 1,680 Climbing Atlanta Center
09:11AM 32.9208 -83.5439 24° Northeast 181 208 11,000 540 Climbing Atlanta Center
09:12AM 32.9811 -83.4989 32° Northeast 216 249 11,000  Level Atlanta Center
09:13AM 33.0478 -83.4589 27° Northeast 241 277 11,000  Level Atlanta Center
09:14AM 33.1100 -83.4139 31° Northeast 258 297 11,000  Level Atlanta Center
09:15AM 33.1767 -83.3736 27° Northeast 258 297 11,000 420 Level Atlanta Center
09:16AM 33.2392 -83.3311 30° Northeast 258 297 11,900 1,440 Climbing Atlanta Center
09:17AM 33.2953 -83.2958 28° Northeast 247 284 13,900 1,500 Climbing Atlanta Center
09:18AM 33.3450 -83.2606 31° Northeast 222 255 15,000 540 Climbing Atlanta Center
09:19AM 33.4075 -83.2225 27° Northeast 226 260 15,000  Level Atlanta Center
09:20AM 33.4719 -83.1772 30° Northeast 244 281 15,000  Level Atlanta Center
09:21AM 33.5403 -83.1317 29° Northeast 262 302 15,000  Level Atlanta Center
09:22AM 33.6069 -83.0861 30° Northeast 268 308 15,000  Level Atlanta Center
09:23AM 33.6753 -83.0403 29° Northeast 268 308 15,000  Level Atlanta Center
09:24AM 33.7481 -82.9944 28° Northeast 268 308 15,000  Level Atlanta Center
09:25AM 33.8144 -82.9511 28° Northeast 268 308 15,000 -240 Level Atlanta Center
09:26AM 33.8831 -82.9053 29° Northeast 268 308 14,600 -900 Descending Atlanta Center
09:27AM 33.9575 -82.8567 28° Northeast 278 320 13,300 -1,380 Descending Atlanta Center
09:28AM 34.0322 -82.8056 30° Northeast 290 334 11,900 -1,200 Descending Atlanta Center
09:29AM 34.1028 -82.7569 30° Northeast 290 334 11,000 -480 Descending Atlanta Center
09:30AM 34.1689 -82.7106 30° Northeast 283 326 11,000  Level Atlanta Center
09:31AM 34.2375 -82.6719 25° Northeast 278 320 11,000  Level Atlanta Center
09:32AM 34.2953 -82.6256 34° Northeast 262 302 11,000  Level Atlanta Center
09:33AM 34.3678 -82.5792 28° Northeast 254 292 11,000 -420 Level Atlanta Center
09:34AM 34.4342 -82.5328 30° Northeast 264 304 10,200 -540 Descending Atlanta Center
09:35AM 34.5022 -82.4836 31° Northeast 269 310 10,000 -120 Descending Atlanta Center
09:36AM 34.5536 -82.4219 45° Northeast 264 304 10,000 -360 Level Atlanta Center
09:37AM 34.6114 -82.3603 41° Northeast 264 304 9,300 -1,020 Descending Atlanta Center
09:38AM 34.6689 -82.2961 43° Northeast 269 310 8,000 -1,620 Descending Atlanta Center
09:39AM 34.7306 -82.2292 42° Northeast 274 315 6,100 -1,920 Descending Atlanta Center
09:41AM 34.8480 -82.2348 32° Northeast  Level FlightAware Approximate
09:48AM 34.8957 -82.2189 22° Northeast  Level Estimated
09:49AM 34.8957 -82.2189 22° Northeast  Level Estimated
09:50AM 34.8957 -82.2189 22° Northeast  Level Estimated
09:51AM 34.8957 -82.2189 22° Northeast  Level Estimated